createdAt,value
2017-11-07T00:00:18.759Z,1010.46
2017-11-07T00:00:59.299Z,1010.44
2017-11-07T00:01:39.841Z,1010.41
2017-11-07T00:02:20.387Z,1010.43
2017-11-07T00:03:00.943Z,1010.38
2017-11-07T00:03:41.539Z,1010.39
2017-11-07T00:04:22.002Z,1010.42
2017-11-07T00:05:02.565Z,1010.43
2017-11-07T00:05:43.118Z,1010.46
2017-11-07T00:06:23.657Z,1010.44
2017-11-07T00:07:04.253Z,1010.39
2017-11-07T00:07:44.826Z,1010.39
2017-11-07T00:08:25.338Z,1010.34
2017-11-07T00:09:05.898Z,1010.34
2017-11-07T00:09:46.431Z,1010.33
2017-11-07T00:10:26.968Z,1010.37
2017-11-07T00:11:07.507Z,1010.37
2017-11-07T00:11:48.066Z,1010.34
2017-11-07T00:12:28.622Z,1010.31
2017-11-07T00:13:09.103Z,1010.27
2017-11-07T00:13:49.645Z,1010.3
2017-11-07T00:14:30.189Z,1010.3
2017-11-07T00:15:10.758Z,1010.3
2017-11-07T00:15:51.306Z,1010.3
2017-11-07T00:16:31.846Z,1010.29
2017-11-07T00:17:12.406Z,1010.28
2017-11-07T00:17:52.962Z,1010.29
2017-11-07T00:18:33.503Z,1010.29
2017-11-07T00:19:14.052Z,1010.31
2017-11-07T00:19:54.618Z,1010.34
2017-11-07T00:20:35.169Z,1010.32
2017-11-07T00:21:15.711Z,1010.35
2017-11-07T00:21:56.249Z,1010.31
2017-11-07T00:22:36.828Z,1010.28
2017-11-07T00:23:17.388Z,1010.31
2017-11-07T00:23:57.934Z,1010.28
2017-11-07T00:24:38.487Z,1010.28
2017-11-07T00:25:19.029Z,1010.26
2017-11-07T00:25:59.561Z,1010.26
2017-11-07T00:26:40.128Z,1010.29
2017-11-07T00:27:20.649Z,1010.24
2017-11-07T00:28:01.198Z,1010.29
2017-11-07T00:28:41.742Z,1010.26
2017-11-07T00:29:22.298Z,1010.24
2017-11-07T00:30:02.848Z,1010.28
2017-11-07T00:30:43.413Z,1010.25
2017-11-07T00:31:23.986Z,1010.33
2017-11-07T00:32:04.512Z,1010.27
2017-11-07T00:32:45.064Z,1010.3
2017-11-07T00:33:25.606Z,1010.3
2017-11-07T00:34:06.155Z,1010.26
2017-11-07T00:34:46.704Z,1010.27
2017-11-07T00:35:27.247Z,1010.25
2017-11-07T00:36:07.808Z,1010.29
2017-11-07T00:36:48.383Z,1010.29
2017-11-07T00:37:28.917Z,1010.35
2017-11-07T00:38:09.479Z,1010.3
2017-11-07T00:38:50.042Z,1010.32
2017-11-07T00:39:30.578Z,1010.25
2017-11-07T00:40:11.158Z,1010.28
2017-11-07T00:40:51.699Z,1010.26
2017-11-07T00:41:32.265Z,1010.29
2017-11-07T00:42:12.798Z,1010.29
2017-11-07T00:42:53.388Z,1010.27
2017-11-07T00:43:33.927Z,1010.27
2017-11-07T00:44:14.490Z,1010.24
2017-11-07T00:44:55.033Z,1010.25
2017-11-07T00:45:35.574Z,1010.25
2017-11-07T00:46:16.173Z,1010.23
2017-11-07T00:46:56.830Z,1010.22
2017-11-07T00:47:37.365Z,1010.25
2017-11-07T00:48:17.933Z,1010.25
2017-11-07T00:48:58.507Z,1010.22
2017-11-07T00:49:39.042Z,1010.23
2017-11-07T00:50:19.591Z,1010.24
2017-11-07T00:51:00.160Z,1010.23
2017-11-07T00:51:40.726Z,1010.21
2017-11-07T00:52:21.307Z,1010.22
2017-11-07T00:53:01.861Z,1010.17
2017-11-07T00:53:42.468Z,1010.25
2017-11-07T00:54:22.991Z,1010.23
2017-11-07T00:55:03.568Z,1010.2
2017-11-07T00:55:44.089Z,1010.24
2017-11-07T00:56:24.635Z,1010.23
2017-11-07T00:57:05.214Z,1010.19
2017-11-07T00:57:45.786Z,1010.17
2017-11-07T00:58:26.358Z,1010.17
2017-11-07T00:59:06.887Z,1010.18
2017-11-07T00:59:47.442Z,1010.18
2017-11-07T01:00:27.975Z,1010.19
2017-11-07T01:01:08.527Z,1010.13
2017-11-07T01:01:49.082Z,1010.19
2017-11-07T01:02:29.608Z,1010.14
2017-11-07T01:03:10.170Z,1010.05
2017-11-07T01:03:50.707Z,1010.12
2017-11-07T01:04:31.264Z,1010.11
2017-11-07T01:05:11.787Z,1010.12
2017-11-07T01:05:52.342Z,1010.12
2017-11-07T01:06:32.884Z,1010.13
2017-11-07T01:07:13.438Z,1010.1
2017-11-07T01:07:53.969Z,1010.06
2017-11-07T01:08:34.505Z,1010.07
2017-11-07T01:09:15.043Z,1010.12
2017-11-07T01:09:55.593Z,1010.06
2017-11-07T01:10:36.253Z,1010.06
2017-11-07T01:11:16.803Z,1010.06
2017-11-07T01:11:57.352Z,1010.04
2017-11-07T01:12:37.906Z,1010.03
2017-11-07T01:13:18.461Z,1010.01
2017-11-07T01:13:59.013Z,1010.02
2017-11-07T01:14:39.588Z,1009.95
2017-11-07T01:15:20.145Z,1009.93
2017-11-07T01:16:00.636Z,1009.93
2017-11-07T01:16:41.176Z,1009.91
2017-11-07T01:17:21.766Z,1009.98
2017-11-07T01:18:02.309Z,1009.97
2017-11-07T01:18:42.844Z,1009.95
2017-11-07T01:19:23.419Z,1009.9
2017-11-07T01:20:03.981Z,1009.94
2017-11-07T01:20:44.538Z,1009.86
2017-11-07T01:21:25.092Z,1009.88
2017-11-07T01:22:05.618Z,1009.89
2017-11-07T01:22:46.175Z,1009.84
2017-11-07T01:23:26.739Z,1009.88
2017-11-07T01:24:07.266Z,1009.87
2017-11-07T01:24:47.813Z,1009.85
2017-11-07T01:25:28.348Z,1009.86
2017-11-07T01:26:08.898Z,1009.81
2017-11-07T01:26:49.435Z,1009.83
2017-11-07T01:27:29.996Z,1009.82
2017-11-07T01:28:10.520Z,1009.82
2017-11-07T01:28:51.066Z,1009.79
2017-11-07T01:29:31.614Z,1009.8
2017-11-07T01:30:12.146Z,1009.77
2017-11-07T01:30:52.718Z,1009.78
2017-11-07T01:31:33.241Z,1009.76
2017-11-07T01:32:13.800Z,1009.75
2017-11-07T01:32:54.382Z,1009.78
2017-11-07T01:33:34.942Z,1009.79
2017-11-07T01:34:15.505Z,1009.78
2017-11-07T01:34:56.061Z,1009.71
2017-11-07T01:35:36.605Z,1009.75
2017-11-07T01:36:17.191Z,1009.75
2017-11-07T01:36:57.753Z,1009.83
2017-11-07T01:37:38.298Z,1009.75
2017-11-07T01:38:18.877Z,1009.76
2017-11-07T01:38:59.442Z,1009.81
2017-11-07T01:39:39.992Z,1009.8
2017-11-07T01:40:20.526Z,1009.81
2017-11-07T01:41:01.090Z,1009.74
2017-11-07T01:41:41.624Z,1009.72
2017-11-07T01:42:22.367Z,1009.78
2017-11-07T01:43:02.848Z,1009.75
2017-11-07T01:43:43.432Z,1009.77
2017-11-07T01:44:24.089Z,1009.72
2017-11-07T01:45:04.613Z,1009.75
2017-11-07T01:45:45.140Z,1009.72
2017-11-07T01:46:25.706Z,1009.73
2017-11-07T01:47:06.265Z,1009.67
2017-11-07T01:47:46.814Z,1009.73
2017-11-07T01:48:27.365Z,1009.71
2017-11-07T01:49:07.927Z,1009.72
2017-11-07T01:49:48.480Z,1009.65
2017-11-07T01:50:29.139Z,1009.66
2017-11-07T01:51:09.678Z,1009.66
2017-11-07T01:51:50.240Z,1009.66
2017-11-07T01:52:30.812Z,1009.61
2017-11-07T01:53:11.347Z,1009.63
2017-11-07T01:53:51.913Z,1009.6
2017-11-07T01:54:32.457Z,1009.66
2017-11-07T01:55:12.998Z,1009.64
2017-11-07T01:55:53.529Z,1009.64
2017-11-07T01:56:34.088Z,1009.64
2017-11-07T01:57:14.652Z,1009.66
2017-11-07T01:57:55.210Z,1009.65
2017-11-07T01:58:35.763Z,1009.66
2017-11-07T01:59:16.299Z,1009.7
2017-11-07T01:59:56.857Z,1009.69
2017-11-07T02:00:37.418Z,1009.7
2017-11-07T02:01:17.980Z,1009.71
2017-11-07T02:01:58.531Z,1009.67
2017-11-07T02:02:39.075Z,1009.65
2017-11-07T02:03:19.624Z,1009.56
2017-11-07T02:04:00.170Z,1009.61
2017-11-07T02:04:40.720Z,1009.6
2017-11-07T02:05:21.272Z,1009.61
2017-11-07T02:06:01.840Z,1009.58
2017-11-07T02:06:42.404Z,1009.52
2017-11-07T02:07:23.222Z,1009.56
2017-11-07T02:08:03.964Z,1009.61
2017-11-07T02:08:44.546Z,1009.59
2017-11-07T02:09:25.128Z,1009.53
2017-11-07T02:10:05.633Z,1009.54
2017-11-07T02:10:46.173Z,1009.57
2017-11-07T02:11:26.749Z,1009.56
2017-11-07T02:12:07.304Z,1009.5
2017-11-07T02:12:47.855Z,1009.52
2017-11-07T02:13:28.409Z,1009.52
2017-11-07T02:14:08.949Z,1009.47
2017-11-07T02:14:49.517Z,1009.52
2017-11-07T02:15:30.038Z,1009.52
2017-11-07T02:16:10.571Z,1009.46
2017-11-07T02:16:51.128Z,1009.49
2017-11-07T02:17:31.661Z,1009.45
2017-11-07T02:18:12.213Z,1009.45
2017-11-07T02:18:52.771Z,1009.41
2017-11-07T02:19:33.342Z,1009.41
2017-11-07T02:20:13.903Z,1009.38
2017-11-07T02:20:54.461Z,1009.4
2017-11-07T02:21:35.012Z,1009.41
2017-11-07T02:22:15.538Z,1009.36
2017-11-07T02:22:56.118Z,1009.32
2017-11-07T02:23:36.661Z,1009.33
2017-11-07T02:24:17.212Z,1009.33
2017-11-07T02:24:57.749Z,1009.34
2017-11-07T02:25:38.291Z,1009.34
2017-11-07T02:26:18.851Z,1009.33
2017-11-07T02:26:59.396Z,1009.31
2017-11-07T02:27:39.955Z,1009.39
2017-11-07T02:28:20.658Z,1009.32
2017-11-07T02:29:01.206Z,1009.32
2017-11-07T02:29:41.723Z,1009.27
2017-11-07T02:30:22.270Z,1009.27
2017-11-07T02:31:02.815Z,1009.3
2017-11-07T02:31:43.377Z,1009.37
2017-11-07T02:32:23.928Z,1009.3
2017-11-07T02:33:04.469Z,1009.21
2017-11-07T02:33:45.022Z,1009.16
2017-11-07T02:34:25.551Z,1009.17
2017-11-07T02:35:06.105Z,1009.21
2017-11-07T02:35:46.693Z,1009.22
2017-11-07T02:36:27.250Z,1009.14
2017-11-07T02:37:07.797Z,1009.17
2017-11-07T02:37:48.330Z,1009.15
2017-11-07T02:38:28.892Z,1009.15
2017-11-07T02:39:09.422Z,1009.16
2017-11-07T02:39:50.065Z,1009.09
2017-11-07T02:40:30.564Z,1009.1
2017-11-07T02:41:11.120Z,1009.08
2017-11-07T02:41:51.658Z,1009.04
2017-11-07T02:42:32.226Z,1009.15
2017-11-07T02:43:12.763Z,1009.12
2017-11-07T02:43:53.278Z,1009.12
2017-11-07T02:44:33.823Z,1009.07
2017-11-07T02:45:14.381Z,1009.06
2017-11-07T02:45:54.922Z,1009.03
2017-11-07T02:46:35.476Z,1009.08
2017-11-07T02:47:16.037Z,1009
2017-11-07T02:47:56.596Z,1009.09
2017-11-07T02:48:37.153Z,1009.02
2017-11-07T02:49:17.710Z,1009
2017-11-07T02:49:58.281Z,1009
2017-11-07T02:50:38.820Z,1008.96
2017-11-07T02:51:19.369Z,1009.01
2017-11-07T02:52:00.034Z,1008.97
2017-11-07T02:52:40.669Z,1009.05
2017-11-07T02:53:21.226Z,1009.07
2017-11-07T02:54:01.827Z,1009.08
2017-11-07T02:54:42.362Z,1009.03
2017-11-07T02:55:23.004Z,1009.02
2017-11-07T02:56:03.557Z,1008.99
2017-11-07T02:56:44.124Z,1008.98
2017-11-07T02:57:24.670Z,1008.98
2017-11-07T02:58:05.227Z,1008.95
2017-11-07T02:58:45.779Z,1008.99
2017-11-07T02:59:26.345Z,1008.92
2017-11-07T03:00:06.927Z,1008.95
2017-11-07T03:00:47.648Z,1008.96
2017-11-07T03:01:28.192Z,1008.98
2017-11-07T03:02:08.766Z,1008.91
2017-11-07T03:02:49.309Z,1008.92
2017-11-07T03:03:29.886Z,1008.97
2017-11-07T03:04:10.430Z,1008.98
2017-11-07T03:04:50.967Z,1008.96
2017-11-07T03:05:31.517Z,1008.93
2017-11-07T03:06:12.071Z,1008.9
2017-11-07T03:06:52.621Z,1008.88
2017-11-07T03:07:33.184Z,1008.88
2017-11-07T03:08:13.716Z,1008.81
2017-11-07T03:08:54.269Z,1008.82
2017-11-07T03:09:34.829Z,1008.84
2017-11-07T03:10:15.380Z,1008.76
2017-11-07T03:10:55.956Z,1008.8
2017-11-07T03:11:36.516Z,1008.78
2017-11-07T03:12:17.089Z,1008.87
2017-11-07T03:12:57.672Z,1008.83
2017-11-07T03:13:38.247Z,1008.86
2017-11-07T03:14:18.797Z,1008.84
2017-11-07T03:14:59.344Z,1008.86
2017-11-07T03:15:39.885Z,1008.89
2017-11-07T03:16:20.457Z,1008.84
2017-11-07T03:17:01.020Z,1008.88
2017-11-07T03:17:41.566Z,1008.88
2017-11-07T03:18:22.107Z,1008.9
2017-11-07T03:19:02.651Z,1008.91
2017-11-07T03:19:43.207Z,1008.98
2017-11-07T03:20:23.783Z,1008.87
2017-11-07T03:21:04.361Z,1008.86
2017-11-07T03:21:44.906Z,1008.82
2017-11-07T03:22:25.463Z,1008.86
2017-11-07T03:23:06.018Z,1008.88
2017-11-07T03:23:46.573Z,1008.84
2017-11-07T03:24:27.116Z,1008.83
2017-11-07T03:25:07.674Z,1008.82
2017-11-07T03:25:48.214Z,1008.83
2017-11-07T03:26:28.777Z,1008.82
2017-11-07T03:27:09.325Z,1008.89
2017-11-07T03:27:49.877Z,1008.87
2017-11-07T03:28:30.447Z,1008.9
2017-11-07T03:29:11.004Z,1008.85
2017-11-07T03:29:51.556Z,1008.85
2017-11-07T03:30:32.110Z,1008.86
2017-11-07T03:31:12.682Z,1008.84
2017-11-07T03:31:53.231Z,1008.87
2017-11-07T03:32:33.781Z,1008.83
2017-11-07T03:33:14.325Z,1008.87
2017-11-07T03:33:54.877Z,1008.85
2017-11-07T03:34:35.434Z,1008.84
2017-11-07T03:35:15.957Z,1008.85
2017-11-07T03:35:56.538Z,1008.84
2017-11-07T03:36:37.064Z,1008.85
2017-11-07T03:37:17.624Z,1008.82
2017-11-07T03:37:58.167Z,1008.83
2017-11-07T03:38:38.714Z,1008.77
2017-11-07T03:39:19.267Z,1008.81
2017-11-07T03:39:59.814Z,1008.85
2017-11-07T03:40:40.369Z,1008.86
2017-11-07T03:41:20.936Z,1008.88
2017-11-07T03:42:01.484Z,1008.81
2017-11-07T03:42:42.048Z,1008.85
2017-11-07T03:43:22.595Z,1008.84
2017-11-07T03:44:03.159Z,1008.82
2017-11-07T03:44:43.716Z,1008.78
2017-11-07T03:45:24.277Z,1008.75
2017-11-07T03:46:04.818Z,1008.73
2017-11-07T03:46:45.376Z,1008.71
2017-11-07T03:47:25.950Z,1008.66
2017-11-07T03:48:06.515Z,1008.72
2017-11-07T03:48:47.050Z,1008.67
2017-11-07T03:49:27.609Z,1008.64
2017-11-07T03:50:08.171Z,1008.72
2017-11-07T03:50:48.737Z,1008.69
2017-11-07T03:51:29.293Z,1008.65
2017-11-07T03:52:09.861Z,1008.69
2017-11-07T03:52:50.419Z,1008.71
2017-11-07T03:53:30.989Z,1008.66
2017-11-07T03:54:11.536Z,1008.64
2017-11-07T03:54:52.070Z,1008.67
2017-11-07T03:55:32.629Z,1008.67
2017-11-07T03:56:13.191Z,1008.67
2017-11-07T03:56:53.716Z,1008.63
2017-11-07T03:57:34.272Z,1008.66
2017-11-07T03:58:14.826Z,1008.57
2017-11-07T03:58:55.372Z,1008.63
2017-11-07T03:59:35.905Z,1008.61
2017-11-07T04:00:16.464Z,1008.62
2017-11-07T04:00:57.008Z,1008.58
2017-11-07T04:01:37.555Z,1008.54
2017-11-07T04:02:18.111Z,1008.57
2017-11-07T04:02:58.662Z,1008.6
2017-11-07T04:03:39.233Z,1008.57
2017-11-07T04:04:19.778Z,1008.6
2017-11-07T04:05:00.325Z,1008.53
2017-11-07T04:05:40.899Z,1008.57
2017-11-07T04:06:21.447Z,1008.61
2017-11-07T04:07:01.992Z,1008.6
2017-11-07T04:07:42.553Z,1008.6
2017-11-07T04:08:23.090Z,1008.59
2017-11-07T04:09:03.638Z,1008.6
2017-11-07T04:09:44.188Z,1008.62
2017-11-07T04:10:24.743Z,1008.6
2017-11-07T04:11:05.289Z,1008.58
2017-11-07T04:11:45.822Z,1008.57
2017-11-07T04:12:26.354Z,1008.58
2017-11-07T04:13:06.908Z,1008.61
2017-11-07T04:13:47.454Z,1008.57
2017-11-07T04:14:28.023Z,1008.6
2017-11-07T04:15:08.566Z,1008.62
2017-11-07T04:15:49.126Z,1008.59
2017-11-07T04:16:29.698Z,1008.61
2017-11-07T04:17:10.249Z,1008.58
2017-11-07T04:17:50.796Z,1008.6
2017-11-07T04:18:31.345Z,1008.55
2017-11-07T04:19:11.868Z,1008.54
2017-11-07T04:19:52.405Z,1008.56
2017-11-07T04:20:32.985Z,1008.55
2017-11-07T04:21:13.524Z,1008.51
2017-11-07T04:21:54.089Z,1008.49
2017-11-07T04:22:34.669Z,1008.5
2017-11-07T04:23:15.242Z,1008.54
2017-11-07T04:23:55.789Z,1008.47
2017-11-07T04:24:36.327Z,1008.48
2017-11-07T04:25:16.900Z,1008.43
2017-11-07T04:25:57.429Z,1008.45
2017-11-07T04:26:37.990Z,1008.48
2017-11-07T04:27:18.546Z,1008.39
2017-11-07T04:27:59.112Z,1008.45
2017-11-07T04:28:39.627Z,1008.49
2017-11-07T04:29:20.203Z,1008.5
2017-11-07T04:30:00.756Z,1008.42
2017-11-07T04:30:41.296Z,1008.46
2017-11-07T04:31:21.841Z,1008.48
2017-11-07T04:32:02.420Z,1008.43
2017-11-07T04:32:42.967Z,1008.37
2017-11-07T04:33:23.525Z,1008.35
2017-11-07T04:34:04.077Z,1008.35
2017-11-07T04:34:44.631Z,1008.37
2017-11-07T04:35:25.226Z,1008.39
2017-11-07T04:36:05.762Z,1008.33
2017-11-07T04:36:46.330Z,1008.33
2017-11-07T04:37:26.877Z,1008.41
2017-11-07T04:38:07.436Z,1008.39
2017-11-07T04:38:47.991Z,1008.39
2017-11-07T04:39:28.545Z,1008.39
2017-11-07T04:40:09.095Z,1008.33
2017-11-07T04:40:49.650Z,1008.4
2017-11-07T04:41:30.211Z,1008.33
2017-11-07T04:42:10.778Z,1008.35
2017-11-07T04:42:51.327Z,1008.31
2017-11-07T04:43:31.887Z,1008.32
2017-11-07T04:44:12.445Z,1008.34
2017-11-07T04:44:53.018Z,1008.35
2017-11-07T04:45:33.572Z,1008.36
2017-11-07T04:46:14.120Z,1008.32
2017-11-07T04:46:54.683Z,1008.31
2017-11-07T04:47:35.241Z,1008.4
2017-11-07T04:48:15.773Z,1008.28
2017-11-07T04:48:56.336Z,1008.29
2017-11-07T04:49:36.901Z,1008.3
2017-11-07T04:50:17.468Z,1008.34
2017-11-07T04:50:58.015Z,1008.28
2017-11-07T04:51:38.578Z,1008.27
2017-11-07T04:52:19.107Z,1008.28
2017-11-07T04:52:59.677Z,1008.28
2017-11-07T04:53:40.219Z,1008.22
2017-11-07T04:54:20.775Z,1008.28
2017-11-07T04:55:01.301Z,1008.27
2017-11-07T04:55:41.865Z,1008.28
2017-11-07T04:56:22.421Z,1008.25
2017-11-07T04:57:02.964Z,1008.29
2017-11-07T04:57:43.524Z,1008.3
2017-11-07T04:58:24.084Z,1008.31
2017-11-07T04:59:04.654Z,1008.26
2017-11-07T04:59:45.221Z,1008.24
2017-11-07T05:00:25.782Z,1008.27
2017-11-07T05:01:06.364Z,1008.23
2017-11-07T05:01:46.964Z,1008.23
2017-11-07T05:02:27.565Z,1008.18
2017-11-07T05:03:08.157Z,1008.14
2017-11-07T05:03:48.743Z,1008.19
2017-11-07T05:04:29.321Z,1008.12
2017-11-07T05:05:09.865Z,1008.09
2017-11-07T05:05:50.435Z,1008.21
2017-11-07T05:06:30.993Z,1008.09
2017-11-07T05:07:11.537Z,1008.07
2017-11-07T05:07:52.086Z,1008.17
2017-11-07T05:08:32.716Z,1008.1
2017-11-07T05:09:13.289Z,1008.12
2017-11-07T05:09:53.848Z,1008.12
2017-11-07T05:10:34.394Z,1008.13
2017-11-07T05:11:14.953Z,1008.13
2017-11-07T05:11:55.503Z,1008.11
2017-11-07T05:12:36.050Z,1008.13
2017-11-07T05:13:16.655Z,1008.15
2017-11-07T05:13:57.205Z,1008.15
2017-11-07T05:14:37.775Z,1008.15
2017-11-07T05:15:18.339Z,1008.15
2017-11-07T05:15:58.895Z,1008.18
2017-11-07T05:16:39.456Z,1008.1
2017-11-07T05:17:19.984Z,1008.11
2017-11-07T05:18:00.553Z,1008.11
2017-11-07T05:18:41.113Z,1008.08
2017-11-07T05:19:21.658Z,1008.15
2017-11-07T05:20:02.189Z,1008.11
2017-11-07T05:20:42.748Z,1008.12
2017-11-07T05:21:23.314Z,1008.09
2017-11-07T05:22:03.857Z,1008.11
2017-11-07T05:22:44.426Z,1008.11
2017-11-07T05:23:24.981Z,1008.09
2017-11-07T05:24:05.538Z,1008.11
2017-11-07T05:24:46.077Z,1008.06
2017-11-07T05:25:26.663Z,1008.05
2017-11-07T05:26:07.226Z,1008
2017-11-07T05:26:47.761Z,1008.01
2017-11-07T05:27:28.302Z,1007.99
2017-11-07T05:28:08.863Z,1007.98
2017-11-07T05:28:49.417Z,1008.07
2017-11-07T05:29:29.975Z,1008.03
2017-11-07T05:30:10.510Z,1008.07
2017-11-07T05:30:51.052Z,1008.05
2017-11-07T05:31:31.611Z,1007.97
2017-11-07T05:32:12.146Z,1008.04
2017-11-07T05:32:52.694Z,1008.06
2017-11-07T05:33:33.257Z,1008.03
2017-11-07T05:34:13.814Z,1008
2017-11-07T05:34:54.393Z,1008.01
2017-11-07T05:35:34.957Z,1007.98
2017-11-07T05:36:15.523Z,1007.97
2017-11-07T05:36:56.092Z,1008.01
2017-11-07T05:37:36.655Z,1007.98
2017-11-07T05:38:17.216Z,1008
2017-11-07T05:38:57.756Z,1007.95
2017-11-07T05:39:38.335Z,1008.02
2017-11-07T05:40:18.866Z,1008.02
2017-11-07T05:40:59.414Z,1008.01
2017-11-07T05:41:39.959Z,1008.07
2017-11-07T05:42:20.519Z,1008.01
2017-11-07T05:43:01.065Z,1008.04
2017-11-07T05:43:41.638Z,1008.07
2017-11-07T05:44:22.200Z,1008.04
2017-11-07T05:45:02.795Z,1008.01
2017-11-07T05:45:43.312Z,1008
2017-11-07T05:46:23.879Z,1008.03
2017-11-07T05:47:04.374Z,1008.02
2017-11-07T05:47:44.945Z,1007.98
2017-11-07T05:48:25.568Z,1008.09
2017-11-07T05:49:06.132Z,1008.09
2017-11-07T05:49:46.697Z,1008.07
2017-11-07T05:50:27.256Z,1008.1
2017-11-07T05:51:07.763Z,1008.15
2017-11-07T05:51:48.304Z,1008.11
2017-11-07T05:52:28.842Z,1008.06
2017-11-07T05:53:09.427Z,1008.05
2017-11-07T05:53:49.927Z,1008.03
2017-11-07T05:54:30.457Z,1008.03
2017-11-07T05:55:10.994Z,1008.05
2017-11-07T05:55:51.535Z,1008.11
2017-11-07T05:56:32.096Z,1008.04
2017-11-07T05:57:12.646Z,1008.04
2017-11-07T05:57:53.188Z,1008.1
2017-11-07T05:58:33.755Z,1008.03
2017-11-07T05:59:14.309Z,1008.05
2017-11-07T05:59:54.865Z,1008.08
2017-11-07T06:00:35.453Z,1008.04
2017-11-07T06:01:15.991Z,1008.09
2017-11-07T06:01:56.558Z,1008.08
2017-11-07T06:02:37.088Z,1008.02
2017-11-07T06:03:17.639Z,1008.04
2017-11-07T06:03:58.214Z,1008.04
2017-11-07T06:04:38.778Z,1008.04
2017-11-07T06:05:19.321Z,1008.01
2017-11-07T06:05:59.960Z,1008.03
2017-11-07T06:06:40.509Z,1008
2017-11-07T06:07:21.053Z,1008.01
2017-11-07T06:08:01.605Z,1008.03
2017-11-07T06:08:42.145Z,1007.99
2017-11-07T06:09:22.698Z,1008.02
2017-11-07T06:10:03.259Z,1007.98
2017-11-07T06:10:43.804Z,1007.96
2017-11-07T06:11:24.360Z,1008
2017-11-07T06:12:04.918Z,1007.98
2017-11-07T06:12:45.488Z,1008
2017-11-07T06:13:26.033Z,1008.02
2017-11-07T06:14:06.581Z,1008.03
2017-11-07T06:14:47.137Z,1008
2017-11-07T06:15:27.680Z,1008.03
2017-11-07T06:16:08.264Z,1008.04
2017-11-07T06:16:48.794Z,1008.01
2017-11-07T06:17:29.344Z,1008
2017-11-07T06:18:09.902Z,1007.99
2017-11-07T06:18:50.458Z,1008.03
2017-11-07T06:19:30.964Z,1008
2017-11-07T06:20:11.610Z,1008.02
2017-11-07T06:20:52.161Z,1008
2017-11-07T06:21:32.752Z,1008
2017-11-07T06:22:13.306Z,1007.99
2017-11-07T06:22:53.850Z,1007.98
2017-11-07T06:23:34.501Z,1007.96
2017-11-07T06:24:14.988Z,1007.98
2017-11-07T06:24:55.556Z,1007.98
2017-11-07T06:25:36.107Z,1008.03
2017-11-07T06:26:16.692Z,1007.99
2017-11-07T06:26:57.168Z,1008.02
2017-11-07T06:27:37.722Z,1008.02
2017-11-07T06:28:18.352Z,1008.01
2017-11-07T06:28:58.880Z,1008
2017-11-07T06:29:39.488Z,1008
2017-11-07T06:30:20.036Z,1008.03
2017-11-07T06:31:00.560Z,1008.03
2017-11-07T06:31:41.133Z,1007.97
2017-11-07T06:32:21.675Z,1007.97
2017-11-07T06:33:02.203Z,1007.92
2017-11-07T06:33:42.935Z,1008.01
2017-11-07T06:34:23.455Z,1007.95
2017-11-07T06:35:03.997Z,1007.93
2017-11-07T06:35:44.532Z,1007.89
2017-11-07T06:36:25.110Z,1007.92
2017-11-07T06:37:05.625Z,1007.9
2017-11-07T06:37:46.202Z,1007.9
2017-11-07T06:38:26.709Z,1007.85
2017-11-07T06:39:07.243Z,1007.9
2017-11-07T06:39:47.852Z,1007.86
2017-11-07T06:40:28.345Z,1007.92
2017-11-07T06:41:08.881Z,1007.92
2017-11-07T06:41:49.415Z,1007.92
2017-11-07T06:42:29.993Z,1007.94
2017-11-07T06:43:10.500Z,1007.92
2017-11-07T06:43:51.008Z,1007.93
2017-11-07T06:44:31.536Z,1007.9
2017-11-07T06:45:12.115Z,1008
2017-11-07T06:45:52.692Z,1007.97
2017-11-07T06:46:33.174Z,1007.96
2017-11-07T06:47:13.679Z,1008
2017-11-07T06:47:54.219Z,1007.96
2017-11-07T06:48:34.763Z,1007.99
2017-11-07T06:49:15.322Z,1008
2017-11-07T06:49:55.899Z,1007.99
2017-11-07T06:50:36.464Z,1008
2017-11-07T06:51:17.034Z,1007.99
2017-11-07T06:51:57.592Z,1007.94
2017-11-07T06:52:38.159Z,1007.91
2017-11-07T06:53:18.707Z,1007.94
2017-11-07T06:53:59.255Z,1007.94
2017-11-07T06:54:39.826Z,1007.94
2017-11-07T06:55:20.443Z,1007.92
2017-11-07T06:56:01.012Z,1007.94
2017-11-07T06:56:41.618Z,1007.96
2017-11-07T06:57:22.167Z,1007.97
2017-11-07T06:58:02.718Z,1008.01
2017-11-07T06:58:43.257Z,1007.96
2017-11-07T06:59:23.819Z,1007.97
2017-11-07T07:00:04.393Z,1007.96
2017-11-07T07:00:44.927Z,1007.99
2017-11-07T07:01:25.482Z,1007.99
2017-11-07T07:02:06.033Z,1007.93
2017-11-07T07:02:46.544Z,1007.91
2017-11-07T07:03:27.105Z,1007.93
2017-11-07T07:04:07.669Z,1007.92
2017-11-07T07:04:48.231Z,1007.92
2017-11-07T07:05:28.795Z,1007.97
2017-11-07T07:06:09.329Z,1007.97
2017-11-07T07:06:49.878Z,1007.91
2017-11-07T07:07:30.573Z,1007.89
2017-11-07T07:08:11.096Z,1007.96
2017-11-07T07:08:51.638Z,1007.96
2017-11-07T07:09:32.175Z,1007.96
2017-11-07T07:10:12.689Z,1008.02
2017-11-07T07:10:53.252Z,1008.01
2017-11-07T07:11:33.776Z,1007.95
2017-11-07T07:12:14.300Z,1007.91
2017-11-07T07:12:54.844Z,1007.97
2017-11-07T07:13:35.437Z,1007.91
2017-11-07T07:14:15.946Z,1007.95
2017-11-07T07:14:56.517Z,1008.02
2017-11-07T07:15:37.064Z,1008.04
2017-11-07T07:16:17.601Z,1007.98
2017-11-07T07:16:58.154Z,1008.03
2017-11-07T07:17:38.693Z,1007.97
2017-11-07T07:18:19.208Z,1008
2017-11-07T07:18:59.770Z,1008.01
2017-11-07T07:19:40.332Z,1007.98
2017-11-07T07:20:20.861Z,1007.98
2017-11-07T07:21:01.414Z,1007.95
2017-11-07T07:21:41.963Z,1008
2017-11-07T07:22:22.513Z,1007.94
2017-11-07T07:23:03.061Z,1007.97
2017-11-07T07:23:43.656Z,1007.95
2017-11-07T07:24:24.185Z,1007.95
2017-11-07T07:25:04.750Z,1007.98
2017-11-07T07:25:45.291Z,1007.97
2017-11-07T07:26:25.844Z,1007.91
2017-11-07T07:27:06.401Z,1007.93
2017-11-07T07:27:46.944Z,1007.98
2017-11-07T07:28:27.527Z,1007.94
2017-11-07T07:29:08.102Z,1007.96
2017-11-07T07:29:48.628Z,1007.98
2017-11-07T07:30:29.184Z,1007.93
2017-11-07T07:31:09.767Z,1007.96
2017-11-07T07:31:50.316Z,1007.89
2017-11-07T07:32:30.876Z,1007.9
2017-11-07T07:33:11.436Z,1007.98
2017-11-07T07:33:52.010Z,1007.97
2017-11-07T07:34:32.553Z,1007.87
2017-11-07T07:35:13.096Z,1007.91
2017-11-07T07:35:53.659Z,1007.88
2017-11-07T07:36:34.207Z,1007.95
2017-11-07T07:37:14.783Z,1007.89
2017-11-07T07:37:55.292Z,1007.93
2017-11-07T07:38:35.846Z,1007.9
2017-11-07T07:39:16.381Z,1007.88
2017-11-07T07:39:56.996Z,1007.89
2017-11-07T07:40:37.512Z,1007.89
2017-11-07T07:41:18.085Z,1007.91
2017-11-07T07:41:58.663Z,1007.92
2017-11-07T07:42:39.205Z,1007.91
2017-11-07T07:43:19.714Z,1007.84
2017-11-07T07:44:00.262Z,1007.88
2017-11-07T07:44:40.871Z,1007.86
2017-11-07T07:45:21.465Z,1007.82
2017-11-07T07:46:02.106Z,1007.77
2017-11-07T07:46:42.656Z,1007.82
2017-11-07T07:47:23.203Z,1007.82
2017-11-07T07:48:03.786Z,1007.88
2017-11-07T07:48:44.366Z,1007.93
2017-11-07T07:49:24.891Z,1007.88
2017-11-07T07:50:05.442Z,1007.87
2017-11-07T07:50:46.029Z,1007.89
2017-11-07T07:51:26.570Z,1007.86
2017-11-07T07:52:07.202Z,1007.89
2017-11-07T07:52:47.808Z,1007.91
2017-11-07T07:53:28.328Z,1007.87
2017-11-07T07:54:08.892Z,1007.85
2017-11-07T07:54:49.411Z,1007.82
2017-11-07T07:55:29.965Z,1007.84
2017-11-07T07:56:10.552Z,1007.83
2017-11-07T07:56:51.083Z,1007.83
2017-11-07T07:57:31.624Z,1007.78
2017-11-07T07:58:12.205Z,1007.84
2017-11-07T07:58:52.759Z,1007.81
2017-11-07T07:59:33.295Z,1007.78
2017-11-07T08:00:13.841Z,1007.71
2017-11-07T08:00:54.337Z,1007.73
2017-11-07T08:01:34.949Z,1007.73
2017-11-07T08:02:15.414Z,1007.78
2017-11-07T08:02:55.975Z,1007.75
2017-11-07T08:03:36.523Z,1007.75
2017-11-07T08:04:17.183Z,1007.7
2017-11-07T08:04:57.707Z,1007.7
2017-11-07T08:05:38.244Z,1007.73
2017-11-07T08:06:18.860Z,1007.67
2017-11-07T08:06:59.311Z,1007.71
2017-11-07T08:07:39.865Z,1007.71
2017-11-07T08:08:20.391Z,1007.78
2017-11-07T08:09:00.957Z,1007.73
2017-11-07T08:09:41.545Z,1007.71
2017-11-07T08:10:22.093Z,1007.71
2017-11-07T08:11:02.618Z,1007.69
2017-11-07T08:11:43.147Z,1007.76
2017-11-07T08:12:23.733Z,1007.67
2017-11-07T08:13:04.230Z,1007.66